sensor_id;sensor_type;location;lat;lon;timestamp;P1;durP1;ratioP1;P2;durP2;ratioP2
64669;SDS011;51080;51.690;5.174;2023-04-01T00:03:46;19.60;;;10.90;;
64669;SDS011;51080;51.690;5.174;2023-04-01T00:09:32;16.40;;;10.90;;
64669;SDS011;51080;51.690;5.174;2023-04-01T00:15:16;22.00;;;11.70;;
64669;SDS011;51080;51.690;5.174;2023-04-01T00:21:00;21.70;;;10.80;;
64669;SDS011;51080;51.690;5.174;2023-04-01T00:26:45;16.90;;;10.30;;
64669;SDS011;51080;51.690;5.174;2023-04-01T00:32:30;16.20;;;9.90;;
64669;SDS011;51080;51.690;5.174;2023-04-01T00:38:15;19.00;;;10.30;;
64669;SDS011;51080;51.690;5.174;2023-04-01T00:44:19;15.90;;;9.50;;
64669;SDS011;51080;51.690;5.174;2023-04-01T00:50:07;20.70;;;9.30;;
64669;SDS011;51080;51.690;5.174;2023-04-01T00:55:59;15.30;;;7.70;;
64669;SDS011;51080;51.690;5.174;2023-04-01T01:01:46;15.00;;;7.50;;
64669;SDS011;51080;51.690;5.174;2023-04-01T01:07:38;11.30;;;5.50;;
64669;SDS011;51080;51.690;5.174;2023-04-01T01:26:17;8.60;;;3.50;;
64669;SDS011;51080;51.690;5.174;2023-04-01T01:32:17;7.60;;;3.00;;
64669;SDS011;51080;51.690;5.174;2023-04-01T01:38:15;7.60;;;3.00;;
64669;SDS011;51080;51.690;5.174;2023-04-01T01:44:14;6.80;;;3.20;;
64669;SDS011;51080;51.690;5.174;2023-04-01T01:50:04;9.10;;;3.30;;
64669;SDS011;51080;51.690;5.174;2023-04-01T01:55:54;8.50;;;3.10;;
64669;SDS011;51080;51.690;5.174;2023-04-01T02:01:39;7.30;;;3.30;;
64669;SDS011;51080;51.690;5.174;2023-04-01T02:07:30;7.60;;;3.50;;
64669;SDS011;51080;51.690;5.174;2023-04-01T02:13:37;10.00;;;4.40;;
64669;SDS011;51080;51.690;5.174;2023-04-01T02:19:32;17.10;;;5.20;;
64669;SDS011;51080;51.690;5.174;2023-04-01T02:25:26;15.10;;;5.70;;
64669;SDS011;51080;51.690;5.174;2023-04-01T02:31:14;13.00;;;5.00;;
64669;SDS011;51080;51.690;5.174;2023-04-01T02:36:59;12.00;;;4.50;;
64669;SDS011;51080;51.690;5.174;2023-04-01T02:42:46;12.50;;;4.20;;
64669;SDS011;51080;51.690;5.174;2023-04-01T02:48:31;9.80;;;4.20;;
64669;SDS011;51080;51.690;5.174;2023-04-01T02:54:16;9.10;;;4.10;;
64669;SDS011;51080;51.690;5.174;2023-04-01T03:00:04;10.10;;;4.20;;
64669;SDS011;51080;51.690;5.174;2023-04-01T03:05:47;11.30;;;4.60;;
64669;SDS011;51080;51.690;5.174;2023-04-01T03:11:32;11.80;;;6.10;;
64669;SDS011;51080;51.690;5.174;2023-04-01T03:17:16;12.90;;;7.00;;
64669;SDS011;51080;51.690;5.174;2023-04-01T03:23:01;15.80;;;8.20;;
64669;SDS011;51080;51.690;5.174;2023-04-01T03:28:46;21.60;;;9.90;;
64669;SDS011;51080;51.690;5.174;2023-04-01T03:34:30;21.40;;;10.10;;
64669;SDS011;51080;51.690;5.174;2023-04-01T03:40:16;19.90;;;9.60;;
64669;SDS011;51080;51.690;5.174;2023-04-01T03:46:00;19.00;;;9.10;;
64669;SDS011;51080;51.690;5.174;2023-04-01T03:51:45;16.90;;;7.80;;
64669;SDS011;51080;51.690;5.174;2023-04-01T03:57:31;16.90;;;7.30;;
64669;SDS011;51080;51.690;5.174;2023-04-01T04:03:14;16.80;;;7.00;;
64669;SDS011;51080;51.690;5.174;2023-04-01T04:08:58;18.50;;;8.60;;
64669;SDS011;51080;51.690;5.174;2023-04-01T04:14:43;17.80;;;7.90;;
64669;SDS011;51080;51.690;5.174;2023-04-01T04:20:28;13.10;;;7.50;;
64669;SDS011;51080;51.690;5.174;2023-04-01T04:26:14;16.50;;;8.00;;
64669;SDS011;51080;51.690;5.174;2023-04-01T04:32:02;17.20;;;8.80;;
64669;SDS011;51080;51.690;5.174;2023-04-01T04:37:49;20.40;;;10.70;;
64669;SDS011;51080;51.690;5.174;2023-04-01T04:43:36;28.00;;;13.40;;
64669;SDS011;51080;51.690;5.174;2023-04-01T04:49:23;25.40;;;13.70;;
64669;SDS011;51080;51.690;5.174;2023-04-01T04:55:10;28.90;;;14.50;;
64669;SDS011;51080;51.690;5.174;2023-04-01T05:00:58;27.70;;;13.50;;
64669;SDS011;51080;51.690;5.174;2023-04-01T05:06:42;27.20;;;13.50;;
64669;SDS011;51080;51.690;5.174;2023-04-01T05:12:28;35.00;;;14.80;;
64669;SDS011;51080;51.690;5.174;2023-04-01T05:18:12;33.40;;;15.60;;
64669;SDS011;51080;51.690;5.174;2023-04-01T05:23:57;37.10;;;17.10;;
64669;SDS011;51080;51.690;5.174;2023-04-01T05:29:41;41.30;;;19.20;;
64669;SDS011;51080;51.690;5.174;2023-04-01T05:35:25;44.50;;;19.30;;
64669;SDS011;51080;51.690;5.174;2023-04-01T05:41:10;47.70;;;19.40;;
64669;SDS011;51080;51.690;5.174;2023-04-01T05:46:56;46.90;;;19.20;;
64669;SDS011;51080;51.690;5.174;2023-04-01T05:52:40;48.90;;;19.80;;
64669;SDS011;51080;51.690;5.174;2023-04-01T05:58:24;59.10;;;19.80;;
64669;SDS011;51080;51.690;5.174;2023-04-01T06:04:10;47.00;;;18.00;;
64669;SDS011;51080;51.690;5.174;2023-04-01T06:09:57;47.30;;;17.70;;
64669;SDS011;51080;51.690;5.174;2023-04-01T06:15:49;51.90;;;17.20;;
64669;SDS011;51080;51.690;5.174;2023-04-01T06:27:55;44.10;;;16.90;;
64669;SDS011;51080;51.690;5.174;2023-04-01T06:40:22;45.70;;;18.10;;
64669;SDS011;51080;51.690;5.174;2023-04-01T06:52:32;42.40;;;17.20;;
64669;SDS011;51080;51.690;5.174;2023-04-01T06:58:42;43.60;;;17.40;;
64669;SDS011;51080;51.690;5.174;2023-04-01T07:04:33;40.20;;;15.90;;
64669;SDS011;51080;51.690;5.174;2023-04-01T07:23:02;38.30;;;15.60;;
64669;SDS011;51080;51.690;5.174;2023-04-01T07:28:51;36.70;;;17.00;;
64669;SDS011;51080;51.690;5.174;2023-04-01T07:34:46;42.90;;;17.60;;
64669;SDS011;51080;51.690;5.174;2023-04-01T08:06:00;41.40;;;18.40;;
64669;SDS011;51080;51.690;5.174;2023-04-01T08:24:35;38.60;;;18.60;;
64669;SDS011;51080;51.690;5.174;2023-04-01T08:30:28;35.90;;;17.70;;
64669;SDS011;51080;51.690;5.174;2023-04-01T08:36:32;38.70;;;17.90;;
64669;SDS011;51080;51.690;5.174;2023-04-01T08:42:30;32.90;;;16.10;;
64669;SDS011;51080;51.690;5.174;2023-04-01T08:48:33;32.50;;;15.10;;
64669;SDS011;51080;51.690;5.174;2023-04-01T08:55:26;29.50;;;15.40;;
64669;SDS011;51080;51.690;5.174;2023-04-01T09:19:41;23.50;;;12.90;;
64669;SDS011;51080;51.690;5.174;2023-04-01T09:25:55;22.90;;;11.70;;
64669;SDS011;51080;51.690;5.174;2023-04-01T09:44:01;15.00;;;9.20;;
64669;SDS011;51080;51.690;5.174;2023-04-01T09:50:14;15.60;;;9.30;;
64669;SDS011;51080;51.690;5.174;2023-04-01T10:02:34;16.10;;;10.60;;
64669;SDS011;51080;51.690;5.174;2023-04-01T10:15:20;19.10;;;11.10;;
64669;SDS011;51080;51.690;5.174;2023-04-01T10:21:23;18.00;;;10.50;;
64669;SDS011;51080;51.690;5.174;2023-04-01T10:34:05;16.40;;;10.20;;
64669;SDS011;51080;51.690;5.174;2023-04-01T10:46:16;20.60;;;11.90;;
64669;SDS011;51080;51.690;5.174;2023-04-01T11:04:32;18.80;;;10.10;;
64669;SDS011;51080;51.690;5.174;2023-04-01T11:16:47;20.80;;;10.20;;
64669;SDS011;51080;51.690;5.174;2023-04-01T11:34:57;17.20;;;7.80;;
64669;SDS011;51080;51.690;5.174;2023-04-01T11:46:49;10.90;;;6.00;;
64669;SDS011;51080;51.690;5.174;2023-04-01T12:12:01;18.20;;;9.30;;
64669;SDS011;51080;51.690;5.174;2023-04-01T12:54:46;11.10;;;5.90;;
64669;SDS011;51080;51.690;5.174;2023-04-01T13:19:32;14.30;;;8.10;;
64669;SDS011;51080;51.690;5.174;2023-04-01T14:04:24;22.90;;;10.40;;
64669;SDS011;51080;51.690;5.174;2023-04-01T14:36:24;22.10;;;12.20;;
64669;SDS011;51080;51.690;5.174;2023-04-01T14:49:04;22.70;;;11.10;;
64669;SDS011;51080;51.690;5.174;2023-04-01T14:55:43;23.30;;;10.80;;
64669;SDS011;51080;51.690;5.174;2023-04-01T15:13:54;29.50;;;15.00;;
64669;SDS011;51080;51.690;5.174;2023-04-01T15:19:57;28.60;;;13.80;;
64669;SDS011;51080;51.690;5.174;2023-04-01T15:37:57;27.40;;;13.80;;
64669;SDS011;51080;51.690;5.174;2023-04-01T15:43:48;37.30;;;13.80;;
64669;SDS011;51080;51.690;5.174;2023-04-01T15:49:43;29.90;;;13.80;;
64669;SDS011;51080;51.690;5.174;2023-04-01T15:55:37;25.40;;;12.80;;
64669;SDS011;51080;51.690;5.174;2023-04-01T16:26:11;22.70;;;10.60;;
64669;SDS011;51080;51.690;5.174;2023-04-01T16:32:17;22.70;;;11.40;;
64669;SDS011;51080;51.690;5.174;2023-04-01T16:38:33;29.10;;;16.30;;
64669;SDS011;51080;51.690;5.174;2023-04-01T16:44:27;24.30;;;12.70;;
64669;SDS011;51080;51.690;5.174;2023-04-01T16:56:24;26.10;;;15.80;;
64669;SDS011;51080;51.690;5.174;2023-04-01T17:02:16;16.50;;;9.20;;
64669;SDS011;51080;51.690;5.174;2023-04-01T17:14:42;13.20;;;8.10;;
64669;SDS011;51080;51.690;5.174;2023-04-01T17:21:23;11.50;;;7.60;;
64669;SDS011;51080;51.690;5.174;2023-04-01T17:33:37;15.90;;;7.60;;
64669;SDS011;51080;51.690;5.174;2023-04-01T17:39:48;12.90;;;8.80;;
64669;SDS011;51080;51.690;5.174;2023-04-01T17:51:46;13.90;;;9.20;;
64669;SDS011;51080;51.690;5.174;2023-04-01T17:57:54;14.70;;;10.30;;
64669;SDS011;51080;51.690;5.174;2023-04-01T18:28:38;20.80;;;14.60;;
64669;SDS011;51080;51.690;5.174;2023-04-01T18:34:37;20.20;;;13.70;;
64669;SDS011;51080;51.690;5.174;2023-04-01T18:40:38;22.00;;;14.70;;
64669;SDS011;51080;51.690;5.174;2023-04-01T18:52:34;52.40;;;39.90;;
64669;SDS011;51080;51.690;5.174;2023-04-01T18:58:35;43.80;;;37.30;;
64669;SDS011;51080;51.690;5.174;2023-04-01T19:04:45;112.50;;;81.00;;
64669;SDS011;51080;51.690;5.174;2023-04-01T19:17:08;37.80;;;28.80;;
64669;SDS011;51080;51.690;5.174;2023-04-01T19:23:31;15.90;;;11.00;;
64669;SDS011;51080;51.690;5.174;2023-04-01T19:41:39;15.90;;;11.40;;
64669;SDS011;51080;51.690;5.174;2023-04-01T19:59:58;18.70;;;14.00;;
64669;SDS011;51080;51.690;5.174;2023-04-01T20:12:07;18.20;;;12.40;;
64669;SDS011;51080;51.690;5.174;2023-04-01T20:18:00;15.10;;;11.40;;
64669;SDS011;51080;51.690;5.174;2023-04-01T20:30:17;19.30;;;14.20;;
64669;SDS011;51080;51.690;5.174;2023-04-01T20:42:29;15.70;;;11.20;;
64669;SDS011;51080;51.690;5.174;2023-04-01T20:48:34;16.30;;;11.70;;
64669;SDS011;51080;51.690;5.174;2023-04-01T21:12:57;8.80;;;6.80;;
64669;SDS011;51080;51.690;5.174;2023-04-01T21:31:41;15.20;;;11.40;;
64669;SDS011;51080;51.690;5.174;2023-04-01T21:56:05;18.80;;;13.80;;
64669;SDS011;51080;51.690;5.174;2023-04-01T22:14:33;26.60;;;17.30;;
64669;SDS011;51080;51.690;5.174;2023-04-01T22:26:31;24.30;;;16.30;;
64669;SDS011;51080;51.690;5.174;2023-04-01T22:32:49;24.00;;;15.80;;
64669;SDS011;51080;51.690;5.174;2023-04-01T22:38:43;25.50;;;17.30;;
64669;SDS011;51080;51.690;5.174;2023-04-01T22:44:55;23.90;;;16.40;;
64669;SDS011;51080;51.690;5.174;2023-04-01T22:51:11;19.50;;;13.50;;
64669;SDS011;51080;51.690;5.174;2023-04-01T22:57:05;20.50;;;14.90;;
64669;SDS011;51080;51.690;5.174;2023-04-01T23:03:30;18.30;;;13.60;;
64669;SDS011;51080;51.690;5.174;2023-04-01T23:09:18;20.50;;;14.70;;
64669;SDS011;51080;51.690;5.174;2023-04-01T23:15:11;19.80;;;13.80;;
64669;SDS011;51080;51.690;5.174;2023-04-01T23:21:09;22.50;;;14.20;;
64669;SDS011;51080;51.690;5.174;2023-04-01T23:26:59;19.70;;;13.60;;
64669;SDS011;51080;51.690;5.174;2023-04-01T23:32:51;21.00;;;13.50;;
64669;SDS011;51080;51.690;5.174;2023-04-01T23:38:37;21.50;;;14.60;;
64669;SDS011;51080;51.690;5.174;2023-04-01T23:44:24;22.60;;;15.30;;
64669;SDS011;51080;51.690;5.174;2023-04-01T23:50:40;19.40;;;13.50;;
64669;SDS011;51080;51.690;5.174;2023-04-01T23:56:33;21.40;;;14.50;;
